createdAt,value
2018-04-29T00:00:23.405Z,13.60
2018-04-29T00:05:26.497Z,13.60
2018-04-29T00:10:29.689Z,13.40
2018-04-29T00:15:32.794Z,13.40
2018-04-29T00:20:35.970Z,13.40
2018-04-29T00:25:39.194Z,13.40
2018-04-29T00:30:43.918Z,13.40
2018-04-29T00:35:48.850Z,13.40
2018-04-29T00:40:51.922Z,13.40
2018-04-29T00:45:55.014Z,13.40
2018-04-29T00:50:58.865Z,13.20
2018-04-29T00:56:02.361Z,13.20
2018-04-29T01:01:06.233Z,13.10
2018-04-29T01:06:10.192Z,13.10
2018-04-29T01:11:14.041Z,13.00
2018-04-29T01:16:17.522Z,12.80
2018-04-29T01:21:21.365Z,12.70
2018-04-29T01:31:30.450Z,12.80
2018-04-29T01:36:34.343Z,12.80
2018-04-29T01:41:37.421Z,12.60
2018-04-29T01:46:40.901Z,12.50
2018-04-29T01:51:44.096Z,12.30
2018-04-29T01:56:47.212Z,12.30
2018-04-29T02:01:50.321Z,11.90
2018-04-29T02:06:53.490Z,11.50
2018-04-29T02:11:58.132Z,11.50
2018-04-29T02:17:01.323Z,11.30
2018-04-29T02:27:08.968Z,11.00
2018-04-29T02:32:12.194Z,11.00
2018-04-29T02:37:16.152Z,10.80
2018-04-29T02:42:20.098Z,10.60
2018-04-29T02:47:23.242Z,10.60
2018-04-29T02:52:26.495Z,10.50
2018-04-29T02:57:30.342Z,10.40
2018-04-29T03:02:33.818Z,10.30
2018-04-29T03:07:36.915Z,10.30
2018-04-29T03:12:40.007Z,10.30
2018-04-29T03:17:43.097Z,10.30
2018-04-29T03:22:46.598Z,10.20
2018-04-29T03:27:50.166Z,10.10
2018-04-29T03:32:54.782Z,9.90
2018-04-29T03:43:02.500Z,9.90
2018-04-29T03:48:05.615Z,9.90
2018-04-29T03:53:08.757Z,9.80
2018-04-29T03:58:29.709Z,9.80
2018-04-29T04:03:51.963Z,9.70
2018-04-29T04:08:56.070Z,9.70
2018-04-29T04:13:59.139Z,9.60
2018-04-29T04:19:03.703Z,9.60
2018-04-29T04:24:07.407Z,9.60
2018-04-29T04:29:12.018Z,9.70
2018-04-29T04:34:15.136Z,9.60
2018-04-29T04:39:18.757Z,9.60
2018-04-29T04:44:21.904Z,9.70
2018-04-29T04:49:25.415Z,9.90
2018-04-29T04:54:28.587Z,10.00
2018-04-29T04:59:31.802Z,10.10
2018-04-29T05:04:36.828Z,10.30
2018-04-29T05:09:40.090Z,10.30
2018-04-29T05:14:43.659Z,10.40
2018-04-29T05:19:47.571Z,10.50
2018-04-29T05:24:50.768Z,10.50
2018-04-29T05:29:53.940Z,10.50
2018-04-29T05:34:57.892Z,10.60
2018-04-29T05:40:01.107Z,10.60
2018-04-29T05:45:04.723Z,10.70
2018-04-29T05:50:07.929Z,10.70
2018-04-29T05:55:11.916Z,10.40
2018-04-29T06:00:15.055Z,10.40
2018-04-29T06:05:18.515Z,10.80
2018-04-29T06:15:27.875Z,11.20
2018-04-29T06:20:31.442Z,11.40
2018-04-29T06:25:36.404Z,11.10
2018-04-29T06:30:40.291Z,11.10
2018-04-29T06:35:43.383Z,11.10
2018-04-29T06:40:46.491Z,11.10
2018-04-29T06:45:49.587Z,11.20
2018-04-29T06:50:52.696Z,11.20
2018-04-29T06:55:56.547Z,11.40
2018-04-29T07:06:04.887Z,11.60
2018-04-29T07:11:08.009Z,11.70
2018-04-29T07:16:11.105Z,11.80
2018-04-29T07:21:14.221Z,11.90
2018-04-29T07:26:19.123Z,12.00
2018-04-29T07:31:23.006Z,12.20
2018-04-29T07:36:26.911Z,12.40
2018-04-29T07:41:30.764Z,12.40
2018-04-29T07:46:33.881Z,12.20
2018-04-29T07:51:36.966Z,12.20
2018-04-29T07:56:40.068Z,12.10
2018-04-29T08:27:06.208Z,13.00
2018-04-29T08:32:10.807Z,13.80
2018-04-29T08:42:19.119Z,13.00
2018-04-29T08:47:23.016Z,13.10
2018-04-29T08:52:26.110Z,13.20
2018-04-29T08:57:29.987Z,13.20
2018-04-29T09:02:34.234Z,12.80
2018-04-29T09:07:39.058Z,12.60
2018-04-29T09:17:46.575Z,12.40
2018-04-29T09:22:50.810Z,12.70
2018-04-29T09:27:54.287Z,13.40
2018-04-29T09:32:57.393Z,14.20
2018-04-29T09:38:02.343Z,14.90
2018-04-29T09:43:05.434Z,15.40
2018-04-29T09:48:08.531Z,15.60
2018-04-29T09:53:13.143Z,15.70
2018-04-29T09:58:16.397Z,15.80
2018-04-29T10:03:19.496Z,16.00
2018-04-29T10:08:23.388Z,16.90
2018-04-29T10:13:27.264Z,17.00
2018-04-29T10:18:30.779Z,16.90
2018-04-29T10:23:33.952Z,16.80
2018-04-29T10:28:37.819Z,16.90
2018-04-29T10:33:41.706Z,17.20
2018-04-29T10:38:44.813Z,17.50
2018-04-29T10:43:48.696Z,18.20
2018-04-29T10:48:52.565Z,17.80
2018-04-29T10:53:55.678Z,17.70
2018-04-29T10:58:58.775Z,17.70
2018-04-29T11:04:02.635Z,17.70
2018-04-29T11:09:05.736Z,17.80
2018-04-29T11:14:09.239Z,17.90
2018-04-29T11:19:13.117Z,17.90
2018-04-29T11:24:21.479Z,17.90
2018-04-29T11:29:24.568Z,18.00
2018-04-29T11:34:27.687Z,17.90
2018-04-29T11:39:31.922Z,17.60
2018-04-29T11:44:35.785Z,17.00
2018-04-29T11:49:38.862Z,16.90
2018-04-29T11:54:42.710Z,17.10
2018-04-29T11:59:45.798Z,17.40
2018-04-29T12:04:48.919Z,17.50
2018-04-29T12:09:52.797Z,17.80
2018-04-29T12:14:56.651Z,18.00
2018-04-29T12:19:59.951Z,18.10
2018-04-29T12:25:03.425Z,18.20
2018-04-29T12:40:15.348Z,18.30
2018-04-29T12:55:27.583Z,18.40
2018-04-29T13:00:30.657Z,18.80
2018-04-29T13:05:33.773Z,19.00
2018-04-29T13:10:36.878Z,19.20
2018-04-29T13:15:40.774Z,19.20
2018-04-29T13:20:45.011Z,19.40
2018-04-29T13:25:49.244Z,19.50
2018-04-29T13:30:53.099Z,19.60
2018-04-29T13:35:57.322Z,19.60
2018-04-29T13:41:00.411Z,19.70
2018-04-29T13:46:03.997Z,19.60
2018-04-29T13:51:07.078Z,19.90
2018-04-29T13:56:10.938Z,20.10
2018-04-29T14:01:15.179Z,20.40
2018-04-29T14:06:18.271Z,20.40
2018-04-29T14:11:22.227Z,20.50
2018-04-29T14:31:39.419Z,20.80
2018-04-29T14:36:43.288Z,20.80
2018-04-29T14:41:46.368Z,20.90
2018-04-29T14:46:49.451Z,20.90
2018-04-29T14:51:53.290Z,21.00
2018-04-29T15:07:06.879Z,21.20
2018-04-29T15:12:10.356Z,21.10
2018-04-29T15:22:18.882Z,21.30
2018-04-29T15:32:26.427Z,21.30
2018-04-29T15:37:29.550Z,21.40
2018-04-29T15:47:38.604Z,21.50
2018-04-29T15:52:42.098Z,21.40
2018-04-29T15:57:45.591Z,21.40
2018-04-29T16:07:53.880Z,21.40
2018-04-29T16:18:02.151Z,21.40
2018-04-29T16:23:06.019Z,21.30
2018-04-29T16:28:09.096Z,21.40
2018-04-29T16:33:12.958Z,21.40
2018-04-29T16:38:17.608Z,21.40
2018-04-29T16:43:21.435Z,21.30
2018-04-29T16:48:24.543Z,21.30
2018-04-29T16:53:27.669Z,21.30
2018-04-29T16:58:32.280Z,21.30
2018-04-29T17:03:35.379Z,21.20
2018-04-29T17:08:39.383Z,21.20
2018-04-29T17:19:16.321Z,21.20
2018-04-29T17:24:19.395Z,21.20
2018-04-29T17:29:22.882Z,21.20
2018-04-29T17:34:26.702Z,21.10
2018-04-29T17:39:29.765Z,21.00
2018-04-29T17:44:32.851Z,21.00
2018-04-29T17:49:37.053Z,21.00
2018-04-29T17:54:40.123Z,21.00
2018-04-29T17:59:43.217Z,20.80
2018-04-29T18:04:47.056Z,20.80
2018-04-29T18:09:50.140Z,20.80
2018-04-29T18:14:53.973Z,20.70
2018-04-29T18:25:02.258Z,20.40
2018-04-29T18:30:05.338Z,20.20
2018-04-29T18:35:09.555Z,20.00
2018-04-29T18:40:13.030Z,19.80
2018-04-29T18:45:16.892Z,19.70
2018-04-29T18:50:19.964Z,19.40
2018-04-29T18:55:23.806Z,19.20
2018-04-29T19:05:47.150Z,19.00
2018-04-29T19:10:50.222Z,18.80
2018-04-29T19:15:54.093Z,18.70
2018-04-29T19:20:57.987Z,18.60
2018-04-29T19:26:01.053Z,18.50
2018-04-29T19:31:04.205Z,18.40
2018-04-29T19:36:07.324Z,18.40
2018-04-29T19:41:10.477Z,18.30
2018-04-29T19:46:13.973Z,18.20
2018-04-29T19:51:17.928Z,18.20
2018-04-29T19:56:21.043Z,18.10
2018-04-29T20:01:24.453Z,17.90
2018-04-29T20:06:28.755Z,17.90
2018-04-29T20:11:32.676Z,17.90
2018-04-29T20:16:37.282Z,17.90
2018-04-29T20:26:46.358Z,17.70
2018-04-29T20:31:49.450Z,17.50
2018-04-29T20:36:52.534Z,17.40
2018-04-29T20:41:55.645Z,17.30
2018-04-29T20:46:59.891Z,17.20
2018-04-29T20:52:04.139Z,17.10
2018-04-29T20:57:07.233Z,17.00
2018-04-29T21:02:10.725Z,17.00
2018-04-29T21:07:15.351Z,16.90
2018-04-29T21:12:19.209Z,16.80
2018-04-29T21:17:24.003Z,16.80
2018-04-29T21:22:27.132Z,16.70
2018-04-29T21:27:30.929Z,16.70
2018-04-29T21:32:34.005Z,16.60
2018-04-29T21:37:37.861Z,16.60
2018-04-29T21:42:40.953Z,16.50
2018-04-29T21:47:44.798Z,16.50
2018-04-29T21:52:47.875Z,16.50
2018-04-29T21:57:50.961Z,16.60
2018-04-29T22:07:58.894Z,16.90
2018-04-29T22:13:02.673Z,16.90
2018-04-29T22:18:06.153Z,17.00
2018-04-29T22:23:10.108Z,16.90
2018-04-29T22:28:13.188Z,16.80
2018-04-29T22:33:18.085Z,16.70
2018-04-29T22:38:22.922Z,16.60
2018-04-29T22:43:26.025Z,16.40
2018-04-29T22:48:29.125Z,16.20
2018-04-29T22:53:32.977Z,16.10
2018-04-29T22:58:36.476Z,15.90
2018-04-29T23:03:41.097Z,15.80
2018-04-29T23:08:44.949Z,15.60
2018-04-29T23:13:48.041Z,15.40
2018-04-29T23:18:51.139Z,15.20
2018-04-29T23:23:54.973Z,15.20
2018-04-29T23:28:58.057Z,15.20
2018-04-29T23:34:01.900Z,15.10
2018-04-29T23:39:05.635Z,15.00
2018-04-29T23:44:08.734Z,15.00
2018-04-29T23:49:11.841Z,15.00
2018-04-29T23:54:14.935Z,14.90
2018-04-29T23:59:18.439Z,14.80
